Snow/Ice From: 23-10-2018 22:46 Until: 24-10-2018 08:00 warning for: Snow/Ice Level: Yellow info button
suomi:
Liikennesää: Ajokeli on huono tienpintojen jäätymisen vuoksi.

svenska:
Trafikvädret: Väglaget är dåligt p.g.a. tillfrysning av vägytor.

english:
Traffic weather warning: Bad road conditions are expected because of ice-covered roads. 


Thunder radar more information blitzortung!


Löydät sääaseman tiedot myös:

European Weather Network

Finland Weather Exchange

Weather Underground

AWEKAS



Weather Underground säähistoriasivu

Päivittäin yhteenveto Tou 1, 2017 Yksiköt:  Metriset    Englantilaiset   Molemmat
« Edellinen Päivä
Seuraava Päivä »
Päivittäin Viikoittain Kuukausittain Vuosittain Mukautettu
  Korkea: Matala: Keskiarvo:
Lämpötila: -17.8 °C -1.3 °C 4.2 °C
Kastepiste: -17.8 °C -3.1 °C -1.4 °C
Kosteus: Humidity % 43 % 69 %
Tuulen nopeus: 0 km/h 0 km/h 5.1 km/h
Tuulenpuuska: 0 km/h - -
Tuuli:- - SW
Ilmanpaine: 0 hPa 1016.8 hPa -
Sade: 0.25 mm    
Historical Graphs
 
 
Taulukkotiedot Tou 1, 2017
Aika Lämpötila Kastepiste Ilmanpaine Tuuli Tuulen nopeus Tuulenpuuska Kosteus Sademäärä (tunneittain)
-17.8 °C -17.8 °C 0 hPa Calm     Humidity % 0 mm
00:00 0.3 °C -1.3 °C 1016.8 hPa SSW 6.4 km/h 12.9 km/h 89 % 0 mm
00:15 0.3 °C -1.2 °C 1016.8 hPa SSW 4.8 km/h 14.5 km/h 90 % 0 mm
00:30 0.3 °C -1.1 °C 1016.8 hPa SSW 3.2 km/h 11.3 km/h 90 % 0 mm
00:45 0.4 °C -1.1 °C 1016.8 hPa SSW 4.8 km/h 9.7 km/h 90 % 0 mm
01:00 0.4 °C -1 °C 1016.8 hPa SSW 6.4 km/h 16.1 km/h 90 % 0 mm
01:15 0.4 °C -1 °C 1016.8 hPa SSW 6.4 km/h 12.9 km/h 90 % 0 mm
01:30 0.3 °C -1.1 °C 1016.8 hPa SSW 4.8 km/h 11.3 km/h 90 % 0 mm
01:45 0.2 °C -1.1 °C 1016.8 hPa SSW 4.8 km/h 8 km/h 91 % 0 mm
02:00 0.2 °C -1.1 °C 1016.8 hPa SW 4.8 km/h 11.3 km/h 91 % 0 mm
02:15 0.2 °C -1.1 °C 1016.8 hPa SSW 4.8 km/h 11.3 km/h 91 % 0 mm
02:30 0.2 °C -1.1 °C 1016.8 hPa SSW 6.4 km/h 11.3 km/h 91 % 0 mm
02:45 0.1 °C -1.2 °C 1016.8 hPa SW 4.8 km/h 11.3 km/h 91 % 0 mm
03:00 -0.1 °C -1.3 °C 1017.2 hPa SSW 4.8 km/h 11.3 km/h 91 % 0 mm
03:15 -0.2 °C -1.5 °C 1017.2 hPa SSW 4.8 km/h 9.7 km/h 91 % 0 mm
03:30 -0.3 °C -1.4 °C 1017.2 hPa SSW 4.8 km/h 8 km/h 92 % 0 mm
03:45 -0.4 °C -1.6 °C 1017.5 hPa SW 4.8 km/h 9.7 km/h 92 % 0 mm
04:00 -0.6 °C -1.7 °C 1017.8 hPa SSW 4.8 km/h 8 km/h 92 % 0 mm
04:15 -0.7 °C -1.7 °C 1018.2 hPa SW 4.8 km/h 8 km/h 93 % 0 mm
04:30 -0.8 °C -1.8 °C 1018.2 hPa SSW 4.8 km/h 9.7 km/h 93 % 0 mm
04:45 -0.9 °C -1.9 °C 1018.2 hPa SSW 4.8 km/h 11.3 km/h 93 % 0 mm
05:00 -1 °C -1.8 °C 1018.5 hPa SSW 3.2 km/h 8 km/h 94 % 0 mm
05:15 -1.1 °C -2 °C 1018.5 hPa SW 3.2 km/h 6.4 km/h 94 % 0 mm
05:30 -1.2 °C -2.1 °C 1018.5 hPa SW 3.2 km/h 6.4 km/h 94 % 0 mm
05:45 -1.3 °C -2.1 °C 1018.8 hPa SSW 3.2 km/h 6.4 km/h 94 % 0 mm
06:00 -1.3 °C -2 °C 1018.8 hPa SSW 3.2 km/h 8 km/h 95 % 0 mm
06:15 -1.2 °C -1.9 °C 1019.2 hPa SSW 3.2 km/h 9.7 km/h 95 % 0 mm
06:30 -1.1 °C -1.8 °C 1019.2 hPa SW 4.8 km/h 11.3 km/h 95 % 0 mm
06:45 -0.8 °C -1.5 °C 1019.5 hPa SSW 4.8 km/h 9.7 km/h 95 % 0 mm
07:00 -0.6 °C -1.4 °C 1019.5 hPa SSW 6.4 km/h 12.9 km/h 94 % 0 mm
07:15 -0.2 °C -1.2 °C 1019.9 hPa SSW 6.4 km/h 16.1 km/h 93 % 0 mm
07:30 0.2 °C -0.9 °C 1019.9 hPa SSW 6.4 km/h 11.3 km/h 92 % 0 mm
07:45 0.7 °C -0.7 °C 1019.9 hPa SSW 6.4 km/h 12.9 km/h 90 % 0 mm
08:00 1.3 °C -0.4 °C 1020.2 hPa SSW 4.8 km/h 14.5 km/h 88 % 0 mm
08:15 1.8 °C -0.4 °C 1020.2 hPa SSW 6.4 km/h 12.9 km/h 85 % 0 mm
08:30 2.4 °C -0.2 °C 1020.5 hPa SSW 6.4 km/h 14.5 km/h 83 % 0 mm
08:45 2.9 °C -0.3 °C 1020.5 hPa SW 4.8 km/h 17.7 km/h 79 % 0 mm
09:00 3.4 °C -0.2 °C 1020.9 hPa SSW 4.8 km/h 11.3 km/h 77 % 0 mm
09:15 4 °C -0.1 °C 1020.9 hPa SSW 4.8 km/h 11.3 km/h 75 % 0 mm
09:30 4.3 °C -0.1 °C 1021.2 hPa SW 4.8 km/h 11.3 km/h 73 % 0 mm
09:45 4.7 °C -0.1 °C 1021.6 hPa SW 4.8 km/h 14.5 km/h 71 % 0 mm
10:00 5.1 °C 0 °C 1021.6 hPa SSW 4.8 km/h 14.5 km/h 70 % 0 mm
10:15 5.3 °C -0.8 °C 1021.9 hPa SSW 6.4 km/h 16.1 km/h 65 % 0 mm
10:30 5.7 °C -1.1 °C 1021.9 hPa SW 6.4 km/h 19.3 km/h 62 % 0 mm
10:45 6.1 °C -1.6 °C 1022.2 hPa SW 6.4 km/h 14.5 km/h 58 % 0 mm
11:00 6.1 °C -1.8 °C 1022.2 hPa SW 8 km/h 19.3 km/h 57 % 0 mm
11:15 6.6 °C -1.9 °C 1022.2 hPa WSW 6.4 km/h 22.5 km/h 55 % 0 mm
11:30 6.8 °C -1.1 °C 1022.6 hPa SW 4.8 km/h 17.7 km/h 57 % 0 mm
11:45 6.6 °C -1.1 °C 1022.6 hPa SSW 6.4 km/h 17.7 km/h 58 % 0 mm
12:00 6.8 °C -1.6 °C 1022.9 hPa SW 8 km/h 24.1 km/h 55 % 0.25 mm
12:15 7.2 °C -1.3 °C 1022.9 hPa SW 4.8 km/h 17.7 km/h 55 % 0.25 mm
12:30 7.1 °C -1.6 °C 1022.9 hPa SW 8 km/h 19.3 km/h 54 % 0.25 mm
12:45 7.8 °C -1.2 °C 1023.2 hPa WSW 4.8 km/h 16.1 km/h 53 % 0.25 mm
13:00 7.9 °C -1.6 °C 1023.2 hPa SW 6.4 km/h 20.9 km/h 51 % 0 mm
13:15 7.8 °C -2 °C 1023.2 hPa SW 9.7 km/h 24.1 km/h 50 % 0 mm
13:30 8.2 °C -2.2 °C 1023.2 hPa SW 8 km/h 14.5 km/h 48 % 0 mm
13:45 8.6 °C -2.7 °C 1023.2 hPa SW 6.4 km/h 17.7 km/h 45 % 0 mm
14:00 8.8 °C -3.1 °C 1023.6 hPa SW 8 km/h 22.5 km/h 43 % 0 mm
14:15 8.8 °C -1.9 °C 1023.6 hPa SW 6.4 km/h 14.5 km/h 47 % 0 mm
14:30 8.9 °C -2.7 °C 1023.6 hPa SW 8 km/h 19.3 km/h 44 % 0 mm
14:45 8.9 °C -2.4 °C 1023.9 hPa SW 6.4 km/h 16.1 km/h 45 % 0 mm
15:00 8.7 °C -2.6 °C 1023.9 hPa WSW 8 km/h 17.7 km/h 45 % 0 mm
15:15 8.7 °C -2.6 °C 1023.9 hPa WSW 8 km/h 24.1 km/h 45 % 0 mm
15:30 8.6 °C -1.8 °C 1023.9 hPa WSW 9.7 km/h 22.5 km/h 48 % 0 mm
15:45 8.7 °C -2.3 °C 1023.9 hPa WSW 8 km/h 29 km/h 46 % 0 mm
16:00 9.1 °C -2.2 °C 1023.9 hPa WSW 8 km/h 22.5 km/h 45 % 0 mm
16:15 9.2 °C -2.5 °C 1023.9 hPa WSW 6.4 km/h 22.5 km/h 44 % 0 mm
16:30 9.3 °C -2.6 °C 1023.9 hPa SSW 8 km/h 25.7 km/h 43 % 0 mm
16:45 9.4 °C -1.9 °C 1023.9 hPa West 4.8 km/h 14.5 km/h 45 % 0 mm
17:00 9.6 °C -1.5 °C 1023.9 hPa WSW 4.8 km/h 14.5 km/h 46 % 0 mm
17:15 9.3 °C -1.7 °C 1023.9 hPa WNW 8 km/h 22.5 km/h 46 % 0 mm
17:30 9.5 °C -1.9 °C 1024.3 hPa WSW 6.4 km/h 20.9 km/h 45 % 0 mm
17:45 9.8 °C -1.6 °C 1023.9 hPa SW 3.2 km/h 12.9 km/h 45 % 0 mm
18:00 9.6 °C -1.2 °C 1024.3 hPa SW 4.8 km/h 14.5 km/h 47 % 0 mm
18:15 9.4 °C -1 °C 1023.9 hPa SW 6.4 km/h 22.5 km/h 48 % 0 mm
18:30 9.3 °C -1.1 °C 1023.9 hPa SSW 8 km/h 20.9 km/h 48 % 0 mm
18:45 9.2 °C -1.3 °C 1023.9 hPa SW 4.8 km/h 14.5 km/h 48 % 0 mm
19:00 9.1 °C -1.1 °C 1023.9 hPa SW 4.8 km/h 11.3 km/h 49 % 0 mm
19:15 9 °C -0.1 °C 1023.9 hPa SSW 4.8 km/h 16.1 km/h 53 % 0 mm
19:30 8.6 °C -0.7 °C 1023.9 hPa SW 4.8 km/h 17.7 km/h 52 % 0 mm
19:45 8.2 °C -0.5 °C 1023.9 hPa SW 3.2 km/h 12.9 km/h 54 % 0 mm
20:00 7.9 °C -0.8 °C 1023.9 hPa WSW 3.2 km/h 12.9 km/h 54 % 0 mm
20:15 7.7 °C -0.5 °C 1023.9 hPa SW 3.2 km/h 11.3 km/h 56 % 0 mm
20:30 7.4 °C -0.1 °C 1023.9 hPa SW 3.2 km/h 16.1 km/h 59 % 0 mm
20:45 7.2 °C 0.1 °C 1023.9 hPa SSW 3.2 km/h 8 km/h 61 % 0 mm
21:00 6.8 °C 0.3 °C 1023.9 hPa SW 3.2 km/h 9.7 km/h 63 % 0 mm
21:22 6.4 °C 0.3 °C 1023.9 hPa SW 3.2 km/h 8 km/h 65 % 0 mm
21:30 5.9 °C 0 °C 1023.9 hPa SW 3.2 km/h 12.9 km/h 66 % 0 mm
21:45 5.6 °C -0.3 °C 1024.3 hPa SW 3.2 km/h 11.3 km/h 66 % 0 mm
22:00 5.2 °C -0.6 °C 1024.3 hPa SSW 4.8 km/h 11.3 km/h 66 % 0 mm
22:15 4.8 °C -0.6 °C 1024.3 hPa SSW 3.2 km/h 9.7 km/h 68 % 0 mm
22:30 4.4 °C -0.8 °C 1024.3 hPa SSW 3.2 km/h 6.4 km/h 69 % 0 mm
22:45 4.1 °C -0.7 °C 1024.3 hPa SSW 3.2 km/h 6.4 km/h 71 % 0 mm
23:00 3.8 °C -0.9 °C 1024.6 hPa SW 3.2 km/h 8 km/h 71 % 0 mm
23:15 3.6 °C -1 °C 1024.6 hPa Calm   4.8 km/h 72 % 0 mm
23:30 3.2 °C -1.2 °C 1024.6 hPa SW 1.6 km/h 8 km/h 73 % 0 mm
23:45 2.9 °C -1.3 °C 1024.6 hPa Calm   6.4 km/h 74 % 0 mm
Esan sääasema
Terveisin Weather Underground - 2.75 mb

Alkuperäinen skripti  Jim McMurry - jmcmurry@mwt.net Sovitettu myös templatelle  Wim van der Kuil - Leuven-Template.eu

Laitteet joita käytämme:

Sääasema
Davis VP2

Sääasemaohjelma
Cumulus

Sääaseman tietokone
Asus EeePC

Palveluntarjoaja
Suncomet

Davis VP2

Cumulus

Asus EeePC

Suncomet